createdAt,value
2023-06-21T00:00:48.220Z,101265.22
2023-06-21T00:03:15.197Z,101284.13
2023-06-21T00:05:41.743Z,101284.91
2023-06-21T00:08:08.202Z,101284.13
2023-06-21T00:10:35.830Z,101283.75
2023-06-21T00:13:02.285Z,101276.03
2023-06-21T00:15:29.250Z,101271.78
2023-06-21T00:17:55.794Z,101268.31
2023-06-21T00:20:22.908Z,101259.84
2023-06-21T00:22:56.694Z,101258.63
2023-06-21T00:25:25.201Z,101267.88
2023-06-21T00:27:52.089Z,101270.19
2023-06-21T00:30:18.619Z,101268.63
2023-06-21T00:32:45.075Z,101265.47
2023-06-21T00:35:12.345Z,101268.56
2023-06-21T00:37:39.359Z,101279.31
2023-06-21T00:40:13.575Z,101293.16
2023-06-21T00:42:40.932Z,101287.78
2023-06-21T00:45:09.662Z,101295.09
2023-06-21T00:47:36.082Z,101293.16
2023-06-21T00:50:02.724Z,101290.06
2023-06-21T00:52:29.789Z,101287.31
2023-06-21T00:54:57.153Z,101299.25
2023-06-21T00:57:23.834Z,101290.75
2023-06-21T00:59:50.316Z,101298.03
2023-06-21T01:02:16.739Z,101299.50
2023-06-21T01:04:43.566Z,101311.41
2023-06-21T01:07:30.140Z,101308.69
2023-06-21T01:10:15.651Z,101314.09
2023-06-21T01:13:05.608Z,101318.28
2023-06-21T01:15:42.638Z,101315.97
2023-06-21T01:18:13.677Z,101317.09
2023-06-21T01:20:41.681Z,101329.75
2023-06-21T01:23:32.684Z,101325.91
2023-06-21T01:26:05.285Z,101318.56
2023-06-21T01:29:04.778Z,101324.66
2023-06-21T01:31:32.048Z,101333.41
2023-06-21T01:34:00.857Z,101334.13
2023-06-21T01:36:27.473Z,101327.97
2023-06-21T01:38:58.082Z,101326.81
2023-06-21T01:41:30.023Z,101329.13
2023-06-21T01:43:58.471Z,101340.22
2023-06-21T01:46:27.387Z,101352.16
2023-06-21T01:48:54.370Z,101335.63
2023-06-21T01:51:22.163Z,101329.47
2023-06-21T01:53:49.784Z,101331.03
2023-06-21T01:56:19.217Z,101328.69
2023-06-21T01:58:47.744Z,101337.22
2023-06-21T02:01:15.027Z,101336.84
2023-06-21T02:03:44.968Z,101332.59
2023-06-21T02:06:12.575Z,101335.28
2023-06-21T02:08:40.046Z,101344.91
2023-06-21T02:11:06.627Z,101346.88
2023-06-21T02:13:33.216Z,101355.41
2023-06-21T02:15:59.653Z,101361.94
2023-06-21T02:18:26.149Z,101356.56
2023-06-21T02:20:53.357Z,101365.81
2023-06-21T02:23:19.901Z,101355.78
2023-06-21T02:25:46.571Z,101365.81
2023-06-21T02:28:13.128Z,101371.97
2023-06-21T02:30:39.485Z,101371.97
2023-06-21T02:33:05.941Z,101375.44
2023-06-21T02:35:32.466Z,101382.03
2023-06-21T02:38:02.595Z,101387.44
2023-06-21T02:40:30.426Z,101387.44
2023-06-21T02:42:57.021Z,101390.13
2023-06-21T02:45:24.425Z,101388.16
2023-06-21T02:47:50.950Z,101377.38
2023-06-21T02:50:18.477Z,101385.88
2023-06-21T02:52:45.111Z,101392.06
2023-06-21T02:55:11.858Z,101389.66
2023-06-21T02:57:38.306Z,101391.94
2023-06-21T03:00:20.610Z,101392.31
2023-06-21T03:02:47.205Z,101396.53
2023-06-21T03:05:14.075Z,101400.00
2023-06-21T03:07:44.994Z,101405.41
2023-06-21T03:10:13.044Z,101400.09
2023-06-21T03:12:44.171Z,101398.94
2023-06-21T03:15:12.239Z,101398.94
2023-06-21T03:17:39.880Z,101409.72
2023-06-21T03:20:15.015Z,101407.03
2023-06-21T03:22:44.551Z,101413.16
2023-06-21T03:25:14.223Z,101416.63
2023-06-21T03:27:40.994Z,101416.19
2023-06-21T03:30:12.337Z,101424.72
2023-06-21T03:32:40.523Z,101426.63
2023-06-21T03:35:07.210Z,101435.50
2023-06-21T03:37:33.655Z,101437.41
2023-06-21T03:40:00.413Z,101445.13
2023-06-21T03:42:26.863Z,101456.28
2023-06-21T03:44:53.308Z,101458.97
2023-06-21T03:47:19.717Z,101447.75
2023-06-21T03:49:46.077Z,101449.31
2023-06-21T03:52:12.481Z,101446.63
2023-06-21T03:54:39.029Z,101444.38
2023-06-21T03:57:05.838Z,101452.00
2023-06-21T03:59:32.372Z,101453.16
2023-06-21T04:01:58.768Z,101456.22
2023-06-21T04:04:25.285Z,101464.31
2023-06-21T04:06:52.923Z,101462.38
2023-06-21T04:09:19.313Z,101476.72
2023-06-21T04:11:47.403Z,101477.84
2023-06-21T04:14:15.705Z,101472.47
2023-06-21T04:16:43.506Z,101475.88
2023-06-21T04:19:09.971Z,101468.94
2023-06-21T04:21:36.423Z,101473.19
2023-06-21T04:24:03.063Z,101476.28
2023-06-21T04:26:29.891Z,101479.81
2023-06-21T04:28:56.302Z,101476.03
2023-06-21T04:31:22.946Z,101475.38
2023-06-21T04:33:49.876Z,101486.25
2023-06-21T04:36:19.373Z,101489.50
2023-06-21T04:38:52.648Z,101487.31
2023-06-21T04:41:19.772Z,101494.38
2023-06-21T04:43:46.357Z,101502.56
2023-06-21T04:46:12.755Z,101499.56
2023-06-21T04:48:39.286Z,101501.56
2023-06-21T04:51:06.410Z,101495.41
2023-06-21T04:53:33.470Z,101499.25
2023-06-21T04:56:00.041Z,101491.59
2023-06-21T04:58:27.574Z,101489.00
2023-06-21T05:00:54.329Z,101494.31
2023-06-21T05:03:21.071Z,101493.97
2023-06-21T05:05:47.668Z,101495.53
2023-06-21T05:08:14.431Z,101509.50
2023-06-21T05:10:41.084Z,101511.09
2023-06-21T05:13:07.488Z,101504.22
2023-06-21T05:15:33.946Z,101498.13
2023-06-21T05:18:00.465Z,101505.09
2023-06-21T05:20:27.231Z,101500.91
2023-06-21T05:22:53.979Z,101500.16
2023-06-21T05:25:20.609Z,101498.16
2023-06-21T05:27:47.024Z,101505.94
2023-06-21T05:30:13.541Z,101513.00
2023-06-21T05:32:39.995Z,101511.59
2023-06-21T05:35:06.807Z,101505.06
2023-06-21T05:37:34.919Z,101520.94
2023-06-21T05:40:03.778Z,101523.22
2023-06-21T05:42:30.713Z,101522.09
2023-06-21T05:44:57.163Z,101521.03
2023-06-21T05:47:23.562Z,101527.69
2023-06-21T05:49:51.525Z,101535.88
2023-06-21T05:52:20.420Z,101545.25
2023-06-21T05:54:46.935Z,101548.06
2023-06-21T05:57:13.376Z,101538.03
2023-06-21T05:59:39.930Z,101546.56
2023-06-21T06:02:07.172Z,101557.31
2023-06-21T06:04:33.769Z,101552.03
2023-06-21T06:07:00.173Z,101555.13
2023-06-21T06:09:26.651Z,101566.78
2023-06-21T06:11:53.781Z,101574.50
2023-06-21T06:14:20.227Z,101574.53
2023-06-21T06:16:47.142Z,101573.69
2023-06-21T06:19:13.603Z,101584.84
2023-06-21T06:21:39.960Z,101593.66
2023-06-21T06:24:06.469Z,101592.44
2023-06-21T06:26:32.847Z,101588.09
2023-06-21T06:28:59.250Z,101586.94
2023-06-21T06:31:28.136Z,101594.63
2023-06-21T06:33:54.629Z,101602.03
2023-06-21T06:36:21.512Z,101609.06
2023-06-21T06:38:51.962Z,101605.09
2023-06-21T06:41:18.783Z,101601.59
2023-06-21T06:43:46.052Z,101606.19
2023-06-21T06:46:12.506Z,101607.53
2023-06-21T06:48:38.880Z,101609.22
2023-06-21T06:51:05.315Z,101618.72
2023-06-21T06:53:31.927Z,101623.78
2023-06-21T06:56:00.158Z,101617.53
2023-06-21T06:58:28.063Z,101620.94
2023-06-21T07:00:54.827Z,101614.09
2023-06-21T07:03:21.394Z,101633.47
2023-06-21T07:05:48.501Z,101629.41
2023-06-21T07:08:15.185Z,101625.38
2023-06-21T07:10:41.807Z,101629.59
2023-06-21T07:13:08.439Z,101639.47
2023-06-21T07:15:35.321Z,101646.06
2023-06-21T07:18:02.387Z,101643.06
2023-06-21T07:20:29.525Z,101645.44
2023-06-21T07:22:57.429Z,101643.81
2023-06-21T07:25:24.233Z,101656.72
2023-06-21T07:27:50.772Z,101657.06
2023-06-21T07:30:18.392Z,101650.81
2023-06-21T07:32:44.813Z,101657.41
2023-06-21T07:35:14.091Z,101659.25
2023-06-21T07:37:40.562Z,101643.34
2023-06-21T07:40:08.754Z,101649.72
2023-06-21T07:42:35.241Z,101651.91
2023-06-21T07:45:01.896Z,101656.78
2023-06-21T07:47:29.166Z,101661.34
2023-06-21T07:49:56.759Z,101661.38
2023-06-21T07:52:24.362Z,101664.16
2023-06-21T07:54:50.762Z,101666.44
2023-06-21T07:57:17.746Z,101667.63
2023-06-21T07:59:44.598Z,101671.25
2023-06-21T08:02:11.260Z,101662.16
2023-06-21T08:04:38.282Z,101673.66
2023-06-21T08:07:05.003Z,101669.47
2023-06-21T08:09:31.367Z,101669.97
2023-06-21T08:11:59.761Z,101675.88
2023-06-21T08:14:26.158Z,101680.88
2023-06-21T08:16:52.530Z,101678.13
2023-06-21T08:19:18.954Z,101675.53
2023-06-21T08:21:46.450Z,101678.09
2023-06-21T08:24:13.130Z,101681.53
2023-06-21T08:26:39.615Z,101682.31
2023-06-21T08:29:06.047Z,101678.00
2023-06-21T08:31:33.916Z,101687.31
2023-06-21T08:34:00.548Z,101686.59
2023-06-21T08:36:27.630Z,101697.25
2023-06-21T08:38:54.009Z,101690.25
2023-06-21T08:41:20.495Z,101699.56
2023-06-21T08:43:46.907Z,101694.31
2023-06-21T08:46:14.044Z,101693.19
2023-06-21T08:48:42.238Z,101702.06
2023-06-21T08:51:08.675Z,101691.41
2023-06-21T08:53:48.132Z,101698.19
2023-06-21T08:56:21.152Z,101708.31
2023-06-21T08:58:54.311Z,101707.72
2023-06-21T09:01:24.012Z,101707.22
2023-06-21T09:03:58.582Z,101719.72
2023-06-21T09:06:27.560Z,101719.59
2023-06-21T09:08:54.835Z,101717.69
2023-06-21T09:11:24.891Z,101716.09
2023-06-21T09:13:52.361Z,101724.00
2023-06-21T09:16:20.341Z,101723.41
2023-06-21T09:18:47.868Z,101721.41
2023-06-21T09:21:15.301Z,101728.25
2023-06-21T09:23:42.007Z,101717.34
2023-06-21T09:26:09.514Z,101721.31
2023-06-21T09:28:36.672Z,101717.78
2023-06-21T09:31:03.284Z,101726.78
2023-06-21T09:33:30.042Z,101720.47
2023-06-21T09:35:57.713Z,101720.50
2023-06-21T09:38:26.159Z,101725.16
2023-06-21T09:40:53.302Z,101724.47
2023-06-21T09:43:24.053Z,101726.34
2023-06-21T09:46:04.733Z,101721.25
2023-06-21T09:48:35.635Z,101729.00
2023-06-21T09:51:03.822Z,101734.13
2023-06-21T09:53:30.473Z,101738.50
2023-06-21T09:55:57.521Z,101733.75
2023-06-21T09:58:24.789Z,101730.97
2023-06-21T10:00:51.560Z,101723.81
2023-06-21T10:03:23.383Z,101730.13
2023-06-21T10:06:02.390Z,101734.25
2023-06-21T10:08:34.428Z,101743.09
2023-06-21T10:11:02.480Z,101741.53
2023-06-21T10:13:31.457Z,101748.13
2023-06-21T10:16:00.761Z,101749.72
2023-06-21T10:18:27.898Z,101756.34
2023-06-21T10:20:58.072Z,101745.25
2023-06-21T10:23:30.227Z,101744.50
2023-06-21T10:26:00.826Z,101749.09
2023-06-21T10:28:29.344Z,101749.44
2023-06-21T10:30:59.660Z,101747.91
2023-06-21T10:33:31.166Z,101745.44
2023-06-21T10:36:00.621Z,101756.31
2023-06-21T10:38:47.683Z,101759.88
2023-06-21T10:41:15.681Z,101762.91
2023-06-21T10:43:43.538Z,101764.59
2023-06-21T10:46:11.915Z,101769.09
2023-06-21T10:48:39.079Z,101764.63
2023-06-21T10:51:05.762Z,101762.00
2023-06-21T10:53:36.694Z,101757.66
2023-06-21T10:56:08.705Z,101766.59
2023-06-21T10:58:35.202Z,101772.88
2023-06-21T11:01:01.785Z,101772.56
2023-06-21T11:03:28.768Z,101781.13
2023-06-21T11:06:25.520Z,101781.19
2023-06-21T11:08:52.147Z,101792.09
2023-06-21T11:11:33.047Z,101779.25
2023-06-21T11:14:05.359Z,101785.03
2023-06-21T11:16:34.781Z,101792.38
2023-06-21T11:19:07.893Z,101789.00
2023-06-21T11:21:48.672Z,101787.63
2023-06-21T11:24:20.307Z,101794.06
2023-06-21T11:26:58.632Z,101798.88
2023-06-21T11:29:43.278Z,101791.38
2023-06-21T11:32:14.426Z,101796.47
2023-06-21T11:35:09.550Z,101791.50
2023-06-21T11:37:48.822Z,101792.56
2023-06-21T11:40:17.148Z,101796.22
2023-06-21T11:42:49.079Z,101796.34
2023-06-21T11:45:25.730Z,101795.41
2023-06-21T11:48:13.986Z,101798.66
2023-06-21T11:50:45.814Z,101794.25
2023-06-21T11:53:29.653Z,101780.47
2023-06-21T11:56:01.827Z,101788.16
2023-06-21T11:58:29.462Z,101797.06
2023-06-21T12:00:56.967Z,101799.44
2023-06-21T12:03:28.043Z,101800.00
2023-06-21T12:05:58.060Z,101797.03
2023-06-21T12:08:30.002Z,101796.50
2023-06-21T12:11:00.925Z,101798.56
2023-06-21T12:13:28.544Z,101794.81
2023-06-21T12:15:57.205Z,101803.19
2023-06-21T12:18:25.390Z,101803.22
2023-06-21T12:20:57.152Z,101801.34
2023-06-21T12:23:23.781Z,101808.09
2023-06-21T12:25:52.450Z,101804.56
2023-06-21T12:28:20.862Z,101813.28
2023-06-21T12:31:01.475Z,101814.69
2023-06-21T12:33:40.724Z,101828.38
2023-06-21T12:36:21.398Z,101834.00
2023-06-21T12:39:08.139Z,101827.91
2023-06-21T12:41:35.597Z,101840.41
2023-06-21T12:44:04.354Z,101844.59
2023-06-21T12:46:38.469Z,101849.59
2023-06-21T12:49:05.002Z,101845.19
2023-06-21T12:51:35.137Z,101850.09
2023-06-21T12:54:12.956Z,101857.06
2023-06-21T12:56:41.605Z,101842.25
2023-06-21T12:59:09.391Z,101851.38
2023-06-21T13:01:37.957Z,101865.50
2023-06-21T13:04:12.999Z,101863.38
2023-06-21T13:06:40.874Z,101860.91
2023-06-21T13:09:08.066Z,101857.81
2023-06-21T13:11:34.693Z,101859.41
2023-06-21T13:14:02.922Z,101870.44
2023-06-21T13:16:29.326Z,101869.06
2023-06-21T13:18:56.122Z,101867.97
2023-06-21T13:21:22.876Z,101877.38
2023-06-21T13:23:50.924Z,101878.13
2023-06-21T13:26:18.362Z,101884.75
2023-06-21T13:28:45.194Z,101875.66
2023-06-21T13:31:14.166Z,101879.22
2023-06-21T13:33:41.471Z,101881.13
2023-06-21T13:36:09.376Z,101882.13
2023-06-21T13:38:36.072Z,101882.50
2023-06-21T13:41:05.070Z,101871.88
2023-06-21T13:43:32.393Z,101881.31
2023-06-21T13:45:59.374Z,101872.53
2023-06-21T13:48:25.897Z,101870.81
2023-06-21T13:50:53.190Z,101870.88
2023-06-21T13:53:20.344Z,101877.47
2023-06-21T13:55:46.730Z,101874.38
2023-06-21T13:58:13.122Z,101878.13
2023-06-21T14:00:39.908Z,101872.75
2023-06-21T14:03:06.565Z,101872.78
2023-06-21T14:05:33.319Z,101871.94
2023-06-21T14:08:00.212Z,101878.63
2023-06-21T14:10:27.884Z,101876.72
2023-06-21T14:12:54.593Z,101886.38
2023-06-21T14:15:20.996Z,101881.81
2023-06-21T14:17:47.395Z,101881.78
2023-06-21T14:20:15.417Z,101879.44
2023-06-21T14:22:41.824Z,101888.84
2023-06-21T14:25:09.681Z,101889.47
2023-06-21T14:27:36.416Z,101898.63
2023-06-21T14:30:05.079Z,101898.94
2023-06-21T14:32:32.431Z,101897.13
2023-06-21T14:34:59.278Z,101897.03
2023-06-21T14:37:26.872Z,101893.59
2023-06-21T14:39:55.469Z,101896.91
2023-06-21T14:42:23.798Z,101892.84
2023-06-21T14:44:51.128Z,101897.19
2023-06-21T14:47:17.691Z,101899.84
2023-06-21T14:49:46.318Z,101899.44
2023-06-21T14:52:13.065Z,101889.75
2023-06-21T14:54:39.774Z,101888.06
2023-06-21T14:57:06.477Z,101894.53
2023-06-21T14:59:32.862Z,101891.81
2023-06-21T15:01:59.315Z,101890.72
2023-06-21T15:04:25.814Z,101894.81
2023-06-21T15:06:52.388Z,101904.34
2023-06-21T15:09:18.854Z,101907.97
2023-06-21T15:11:45.279Z,101906.75
2023-06-21T15:14:11.739Z,101909.81
2023-06-21T15:16:43.404Z,101912.22
2023-06-21T15:19:12.506Z,101913.13
2023-06-21T15:21:40.033Z,101915.66
2023-06-21T15:24:07.658Z,101916.34
2023-06-21T15:26:34.721Z,101916.78
2023-06-21T15:29:02.476Z,101925.84
2023-06-21T15:31:28.896Z,101919.81
2023-06-21T15:33:55.497Z,101916.19
2023-06-21T15:36:22.396Z,101920.19
2023-06-21T15:38:48.824Z,101915.81
2023-06-21T15:41:15.934Z,101916.16
2023-06-21T15:43:42.804Z,101913.78
2023-06-21T15:46:09.248Z,101914.28
2023-06-21T15:48:35.710Z,101920.94
2023-06-21T15:51:02.184Z,101917.34
2023-06-21T15:53:28.673Z,101920.41
2023-06-21T15:55:55.134Z,101912.41
2023-06-21T15:58:21.601Z,101910.56
2023-06-21T16:00:48.388Z,101912.13
2023-06-21T16:03:15.855Z,101916.41
2023-06-21T16:05:42.551Z,101922.94
2023-06-21T16:08:08.949Z,101918.69
2023-06-21T16:10:35.412Z,101920.38
2023-06-21T16:13:04.308Z,101919.16
2023-06-21T16:15:32.611Z,101922.91
2023-06-21T16:17:59.343Z,101923.16
2023-06-21T16:20:27.417Z,101929.78
2023-06-21T16:22:53.867Z,101915.72
2023-06-21T16:25:21.410Z,101925.03
2023-06-21T16:27:47.858Z,101925.03
2023-06-21T16:30:14.486Z,101926.28
2023-06-21T16:32:42.160Z,101924.41
2023-06-21T16:35:08.788Z,101930.28
2023-06-21T16:37:35.219Z,101927.50
2023-06-21T16:40:01.631Z,101931.78
2023-06-21T16:42:30.211Z,101932.69
2023-06-21T16:44:57.199Z,101932.38
2023-06-21T16:47:24.407Z,101928.88
2023-06-21T16:49:50.871Z,101928.25
2023-06-21T16:52:17.410Z,101928.91
2023-06-21T16:54:43.853Z,101936.00
2023-06-21T16:57:17.771Z,101942.47
2023-06-21T16:59:45.330Z,101934.47
2023-06-21T17:02:11.851Z,101935.19
2023-06-21T17:04:38.299Z,101928.81
2023-06-21T17:07:05.271Z,101935.06
2023-06-21T17:09:31.663Z,101943.25
2023-06-21T17:11:58.696Z,101940.50
2023-06-21T17:14:25.190Z,101938.13
2023-06-21T17:16:51.558Z,101954.94
2023-06-21T17:19:18.961Z,101964.34
2023-06-21T17:21:45.612Z,101962.78
2023-06-21T17:24:12.088Z,101947.25
2023-06-21T17:26:38.497Z,101954.28
2023-06-21T17:29:04.886Z,101960.16
2023-06-21T17:31:31.579Z,101957.84
2023-06-21T17:33:58.142Z,101965.69
2023-06-21T17:36:24.828Z,101953.31
2023-06-21T17:38:51.570Z,101946.06
2023-06-21T17:41:17.985Z,101956.66
2023-06-21T17:43:44.421Z,101963.78
2023-06-21T17:46:10.819Z,101965.44
2023-06-21T17:48:39.417Z,101955.38
2023-06-21T17:51:06.079Z,101958.97
2023-06-21T17:53:32.608Z,101957.81
2023-06-21T17:55:58.998Z,101952.81
2023-06-21T17:58:25.532Z,101955.63
2023-06-21T18:00:53.125Z,101952.50
2023-06-21T18:03:19.783Z,101957.97
2023-06-21T18:05:46.392Z,101957.97
2023-06-21T18:08:12.767Z,101957.19
2023-06-21T18:10:39.146Z,101952.16
2023-06-21T18:13:06.859Z,101943.63
2023-06-21T18:15:34.481Z,101947.16
2023-06-21T18:18:01.140Z,101941.69
2023-06-21T18:20:27.599Z,101952.63
2023-06-21T18:22:55.583Z,101949.91
2023-06-21T18:25:22.369Z,101939.41
2023-06-21T18:27:49.704Z,101948.00
2023-06-21T18:30:16.317Z,101953.84
2023-06-21T18:32:42.921Z,101945.72
2023-06-21T18:35:09.989Z,101947.25
2023-06-21T18:37:38.484Z,101947.22
2023-06-21T18:40:05.711Z,101945.31
2023-06-21T18:42:32.213Z,101941.81
2023-06-21T18:44:58.918Z,101935.59
2023-06-21T18:47:25.387Z,101935.59
2023-06-21T18:49:52.033Z,101927.78
2023-06-21T18:52:18.423Z,101927.00
2023-06-21T18:54:44.827Z,101925.44
2023-06-21T18:57:11.268Z,101927.38
2023-06-21T18:59:37.841Z,101922.31
2023-06-21T19:02:05.778Z,101928.91
2023-06-21T19:04:36.628Z,101923.06
2023-06-21T19:07:04.281Z,101918.00
2023-06-21T19:09:30.685Z,101930.78
2023-06-21T19:11:57.380Z,101911.38
2023-06-21T19:14:23.961Z,101914.47
2023-06-21T19:16:51.949Z,101913.28
2023-06-21T19:19:18.752Z,101911.31
2023-06-21T19:21:45.243Z,101908.16
2023-06-21T19:24:11.761Z,101908.53
2023-06-21T19:26:39.769Z,101913.56
2023-06-21T19:29:08.132Z,101913.53
2023-06-21T19:31:35.999Z,101923.19
2023-06-21T19:34:02.669Z,101915.03
2023-06-21T19:36:29.422Z,101921.16
2023-06-21T19:38:56.403Z,101913.72
2023-06-21T19:41:23.014Z,101917.97
2023-06-21T19:43:49.480Z,101922.94
2023-06-21T19:46:15.874Z,101924.84
2023-06-21T19:48:42.330Z,101916.66
2023-06-21T19:51:08.715Z,101919.31
2023-06-21T19:53:36.258Z,101919.66
2023-06-21T19:56:02.855Z,101927.78
2023-06-21T19:58:29.859Z,101933.94
2023-06-21T20:00:56.552Z,101939.31
2023-06-21T20:03:23.213Z,101937.63
2023-06-21T20:05:51.746Z,101945.22
2023-06-21T20:08:18.329Z,101944.28
2023-06-21T20:10:46.217Z,101958.78
2023-06-21T20:13:12.637Z,101962.44
2023-06-21T20:15:40.873Z,101963.81
2023-06-21T20:18:08.558Z,101961.00
2023-06-21T20:20:36.651Z,101968.13
2023-06-21T20:23:03.629Z,101965.59
2023-06-21T20:25:31.496Z,101962.78
2023-06-21T20:27:57.934Z,101967.69
2023-06-21T20:30:24.913Z,101965.66
2023-06-21T20:32:51.407Z,101960.38
2023-06-21T20:35:17.900Z,101966.78
2023-06-21T20:37:44.293Z,101969.75
2023-06-21T20:40:15.630Z,101979.72
2023-06-21T20:42:42.813Z,101989.63
2023-06-21T20:45:22.114Z,101990.22
2023-06-21T20:47:51.945Z,101988.16
2023-06-21T20:50:20.591Z,101990.00
2023-06-21T20:52:47.118Z,101985.94
2023-06-21T20:55:13.561Z,101996.06
2023-06-21T20:57:39.924Z,101989.31
2023-06-21T21:00:12.190Z,101998.06
2023-06-21T21:02:38.974Z,101997.91
2023-06-21T21:05:05.890Z,101993.06
2023-06-21T21:07:32.526Z,102006.75
2023-06-21T21:09:59.090Z,102010.09
2023-06-21T21:12:27.297Z,102014.78
2023-06-21T21:14:54.360Z,102029.81
2023-06-21T21:17:20.896Z,102033.25
2023-06-21T21:19:47.838Z,102039.94
2023-06-21T21:22:15.012Z,102040.81
2023-06-21T21:24:41.856Z,102032.06
2023-06-21T21:27:08.702Z,102028.84
2023-06-21T21:29:36.625Z,102028.22
2023-06-21T21:32:05.348Z,102022.22
2023-06-21T21:34:31.888Z,102027.44
2023-06-21T21:36:58.588Z,102017.63
2023-06-21T21:39:28.291Z,102013.06
2023-06-21T21:41:54.697Z,102017.00
2023-06-21T21:44:21.443Z,102010.47
2023-06-21T21:46:48.784Z,102026.13
2023-06-21T21:49:16.001Z,102029.69
2023-06-21T21:51:43.012Z,102026.31
2023-06-21T21:54:09.674Z,102030.97
2023-06-21T21:56:36.041Z,102028.84
2023-06-21T21:59:02.454Z,102018.75
2023-06-21T22:01:28.923Z,102017.09
2023-06-21T22:03:55.592Z,102017.00
2023-06-21T22:06:22.270Z,102024.03
2023-06-21T22:08:48.649Z,102034.72
2023-06-21T22:11:16.708Z,102044.09
2023-06-21T22:13:44.206Z,102041.19
2023-06-21T22:16:13.485Z,102045.25
2023-06-21T22:18:41.582Z,102033.94
2023-06-21T22:21:10.283Z,102036.56
2023-06-21T22:23:38.586Z,102037.22
2023-06-21T22:26:07.416Z,102039.38
2023-06-21T22:28:39.092Z,102031.88
2023-06-21T22:31:06.075Z,102031.09
2023-06-21T22:33:33.448Z,102041.75
2023-06-21T22:36:00.032Z,102043.88
2023-06-21T22:38:26.811Z,102045.25
2023-06-21T22:40:55.036Z,102048.97
2023-06-21T22:43:21.572Z,102045.03
2023-06-21T22:45:47.970Z,102049.53
2023-06-21T22:48:14.616Z,102044.25
2023-06-21T22:50:43.717Z,102047.38
2023-06-21T22:53:10.460Z,102049.66
2023-06-21T22:55:36.953Z,102045.41
2023-06-21T22:58:05.077Z,102045.03
2023-06-21T23:00:32.209Z,102036.63
2023-06-21T23:02:58.904Z,102034.28
2023-06-21T23:05:25.623Z,102040.31
2023-06-21T23:07:52.255Z,102040.69
2023-06-21T23:10:18.614Z,102044.50
2023-06-21T23:12:45.104Z,102042.59
2023-06-21T23:15:17.679Z,102039.53
2023-06-21T23:17:45.526Z,102043.03
2023-06-21T23:20:13.930Z,102054.56
2023-06-21T23:22:41.312Z,102053.91
2023-06-21T23:25:13.316Z,102058.38
2023-06-21T23:27:44.230Z,102054.56
2023-06-21T23:30:20.558Z,102056.78
2023-06-21T23:32:57.115Z,102061.72
2023-06-21T23:35:23.544Z,102056.69
2023-06-21T23:37:54.830Z,102067.53
2023-06-21T23:40:21.254Z,102061.28
2023-06-21T23:42:52.527Z,102064.84
2023-06-21T23:45:19.267Z,102060.94
2023-06-21T23:47:45.797Z,102065.84
2023-06-21T23:50:12.566Z,102054.66
2023-06-21T23:52:42.345Z,102064.19
2023-06-21T23:55:09.689Z,102070.91
2023-06-21T23:57:36.114Z,102069.09
